sensor_id;sensor_type;location;lat;lon;timestamp;temperature;humidity
80230;DHT22;69540;42.136;24.742;2024-02-15T00:00:05;12.00;40.80
80230;DHT22;69540;42.136;24.742;2024-02-15T00:02:32;12.10;40.70
80230;DHT22;69540;42.136;24.742;2024-02-15T00:04:57;12.10;40.60
80230;DHT22;69540;42.136;24.742;2024-02-15T00:07:23;12.10;40.60
80230;DHT22;69540;42.136;24.742;2024-02-15T00:09:49;12.10;40.70
80230;DHT22;69540;42.136;24.742;2024-02-15T00:12:15;12.10;40.50
80230;DHT22;69540;42.136;24.742;2024-02-15T00:14:40;12.00;40.30
80230;DHT22;69540;42.136;24.742;2024-02-15T00:17:06;12.00;40.60
80230;DHT22;69540;42.136;24.742;2024-02-15T00:19:32;12.00;40.60
80230;DHT22;69540;42.136;24.742;2024-02-15T00:21:59;12.00;40.60
80230;DHT22;69540;42.136;24.742;2024-02-15T00:24:25;12.10;40.60
80230;DHT22;69540;42.136;24.742;2024-02-15T00:26:50;12.10;40.30
80230;DHT22;69540;42.136;24.742;2024-02-15T00:29:16;12.10;40.30
80230;DHT22;69540;42.136;24.742;2024-02-15T00:31:42;12.10;40.40
80230;DHT22;69540;42.136;24.742;2024-02-15T00:34:07;12.10;40.60
80230;DHT22;69540;42.136;24.742;2024-02-15T00:36:34;12.10;40.40
80230;DHT22;69540;42.136;24.742;2024-02-15T00:39:00;12.00;40.40
80230;DHT22;69540;42.136;24.742;2024-02-15T00:41:25;12.10;40.40
80230;DHT22;69540;42.136;24.742;2024-02-15T00:43:51;12.10;40.30
80230;DHT22;69540;42.136;24.742;2024-02-15T00:46:17;12.00;40.60
80230;DHT22;69540;42.136;24.742;2024-02-15T00:48:42;11.90;40.80
80230;DHT22;69540;42.136;24.742;2024-02-15T00:51:08;12.00;40.70
80230;DHT22;69540;42.136;24.742;2024-02-15T00:53:34;12.10;40.70
80230;DHT22;69540;42.136;24.742;2024-02-15T00:56:00;12.10;40.40
80230;DHT22;69540;42.136;24.742;2024-02-15T00:58:26;12.10;40.40
80230;DHT22;69540;42.136;24.742;2024-02-15T01:00:53;12.10;40.20
80230;DHT22;69540;42.136;24.742;2024-02-15T01:03:21;12.10;40.30
80230;DHT22;69540;42.136;24.742;2024-02-15T01:05:48;12.10;40.20
80230;DHT22;69540;42.136;24.742;2024-02-15T01:08:14;12.00;40.40
80230;DHT22;69540;42.136;24.742;2024-02-15T01:10:40;12.00;40.60
80230;DHT22;69540;42.136;24.742;2024-02-15T01:13:05;12.10;40.40
80230;DHT22;69540;42.136;24.742;2024-02-15T01:15:31;12.10;40.30
80230;DHT22;69540;42.136;24.742;2024-02-15T01:17:57;12.00;40.50
80230;DHT22;69540;42.136;24.742;2024-02-15T01:20:23;12.00;40.60
80230;DHT22;69540;42.136;24.742;2024-02-15T01:22:48;12.00;40.70
80230;DHT22;69540;42.136;24.742;2024-02-15T01:25:17;12.00;40.70
80230;DHT22;69540;42.136;24.742;2024-02-15T01:27:43;12.00;41.90
80230;DHT22;69540;42.136;24.742;2024-02-15T01:30:09;12.00;40.80
80230;DHT22;69540;42.136;24.742;2024-02-15T01:32:35;11.90;40.70
80230;DHT22;69540;42.136;24.742;2024-02-15T01:35:02;12.00;40.60
80230;DHT22;69540;42.136;24.742;2024-02-15T01:37:28;12.00;40.70
80230;DHT22;69540;42.136;24.742;2024-02-15T01:39:54;11.90;40.70
80230;DHT22;69540;42.136;24.742;2024-02-15T01:42:19;11.90;40.90
80230;DHT22;69540;42.136;24.742;2024-02-15T01:44:45;11.90;40.80
80230;DHT22;69540;42.136;24.742;2024-02-15T01:47:13;11.80;40.70
80230;DHT22;69540;42.136;24.742;2024-02-15T01:49:39;11.70;41.00
80230;DHT22;69540;42.136;24.742;2024-02-15T01:52:07;11.70;41.00
80230;DHT22;69540;42.136;24.742;2024-02-15T01:54:35;11.70;40.90
80230;DHT22;69540;42.136;24.742;2024-02-15T01:57:04;11.60;41.00
80230;DHT22;69540;42.136;24.742;2024-02-15T01:59:31;11.50;41.00
80230;DHT22;69540;42.136;24.742;2024-02-15T02:01:57;11.50;41.00
80230;DHT22;69540;42.136;24.742;2024-02-15T02:04:23;11.50;40.80
80230;DHT22;69540;42.136;24.742;2024-02-15T02:06:49;11.60;40.80
80230;DHT22;69540;42.136;24.742;2024-02-15T02:09:14;11.60;40.80
80230;DHT22;69540;42.136;24.742;2024-02-15T02:11:46;11.60;40.80
80230;DHT22;69540;42.136;24.742;2024-02-15T02:14:12;11.50;40.80
80230;DHT22;69540;42.136;24.742;2024-02-15T02:16:38;11.30;41.50
80230;DHT22;69540;42.136;24.742;2024-02-15T02:19:05;11.30;41.70
80230;DHT22;69540;42.136;24.742;2024-02-15T02:21:35;11.30;41.30
80230;DHT22;69540;42.136;24.742;2024-02-15T02:24:03;11.40;41.20
80230;DHT22;69540;42.136;24.742;2024-02-15T02:26:33;11.40;41.20
80230;DHT22;69540;42.136;24.742;2024-02-15T02:29:00;11.40;40.90
80230;DHT22;69540;42.136;24.742;2024-02-15T02:31:25;11.40;40.80
80230;DHT22;69540;42.136;24.742;2024-02-15T02:33:52;11.40;40.90
80230;DHT22;69540;42.136;24.742;2024-02-15T02:36:19;11.40;40.80
80230;DHT22;69540;42.136;24.742;2024-02-15T02:38:45;11.30;41.00
80230;DHT22;69540;42.136;24.742;2024-02-15T02:41:14;11.40;41.10
80230;DHT22;69540;42.136;24.742;2024-02-15T02:43:40;11.20;41.10
80230;DHT22;69540;42.136;24.742;2024-02-15T02:46:06;11.30;41.20
80230;DHT22;69540;42.136;24.742;2024-02-15T02:48:36;11.30;41.20
80230;DHT22;69540;42.136;24.742;2024-02-15T02:51:02;11.30;41.10
80230;DHT22;69540;42.136;24.742;2024-02-15T02:53:28;11.10;41.30
80230;DHT22;69540;42.136;24.742;2024-02-15T02:55:55;11.10;41.50
80230;DHT22;69540;42.136;24.742;2024-02-15T02:58:22;11.10;41.40
80230;DHT22;69540;42.136;24.742;2024-02-15T03:00:49;11.10;41.30
80230;DHT22;69540;42.136;24.742;2024-02-15T03:03:15;11.10;41.40
80230;DHT22;69540;42.136;24.742;2024-02-15T03:05:41;11.00;42.70
80230;DHT22;69540;42.136;24.742;2024-02-15T03:08:11;11.00;41.70
80230;DHT22;69540;42.136;24.742;2024-02-15T03:10:38;11.00;41.70
80230;DHT22;69540;42.136;24.742;2024-02-15T03:13:05;11.00;41.60
80230;DHT22;69540;42.136;24.742;2024-02-15T03:15:31;11.10;41.70
80230;DHT22;69540;42.136;24.742;2024-02-15T03:17:58;11.10;41.50
80230;DHT22;69540;42.136;24.742;2024-02-15T03:20:24;11.20;41.60
80230;DHT22;69540;42.136;24.742;2024-02-15T03:22:55;11.20;41.70
80230;DHT22;69540;42.136;24.742;2024-02-15T03:25:21;11.10;41.60
80230;DHT22;69540;42.136;24.742;2024-02-15T03:27:53;11.10;41.60
80230;DHT22;69540;42.136;24.742;2024-02-15T03:30:20;11.00;41.90
80230;DHT22;69540;42.136;24.742;2024-02-15T03:32:46;11.00;42.00
80230;DHT22;69540;42.136;24.742;2024-02-15T03:35:17;10.90;42.10
80230;DHT22;69540;42.136;24.742;2024-02-15T03:37:43;10.90;42.00
80230;DHT22;69540;42.136;24.742;2024-02-15T03:40:09;11.00;41.80
80230;DHT22;69540;42.136;24.742;2024-02-15T03:42:35;11.00;41.80
80230;DHT22;69540;42.136;24.742;2024-02-15T03:45:05;11.00;41.80
80230;DHT22;69540;42.136;24.742;2024-02-15T03:47:35;11.00;41.90
80230;DHT22;69540;42.136;24.742;2024-02-15T03:50:07;11.00;41.90
80230;DHT22;69540;42.136;24.742;2024-02-15T03:52:38;11.00;41.80
80230;DHT22;69540;42.136;24.742;2024-02-15T03:55:05;11.00;41.70
80230;DHT22;69540;42.136;24.742;2024-02-15T03:57:33;11.00;41.80
80230;DHT22;69540;42.136;24.742;2024-02-15T03:59:59;11.00;41.60
80230;DHT22;69540;42.136;24.742;2024-02-15T04:02:26;10.90;41.60
80230;DHT22;69540;42.136;24.742;2024-02-15T04:04:56;11.00;41.70
80230;DHT22;69540;42.136;24.742;2024-02-15T04:07:22;11.00;41.60
80230;DHT22;69540;42.136;24.742;2024-02-15T04:09:51;11.00;41.50
80230;DHT22;69540;42.136;24.742;2024-02-15T04:12:16;11.00;41.50
80230;DHT22;69540;42.136;24.742;2024-02-15T04:14:43;11.00;41.50
80230;DHT22;69540;42.136;24.742;2024-02-15T04:17:12;11.00;41.30
80230;DHT22;69540;42.136;24.742;2024-02-15T04:19:45;11.00;41.40
80230;DHT22;69540;42.136;24.742;2024-02-15T04:22:16;11.00;41.60
80230;DHT22;69540;42.136;24.742;2024-02-15T04:24:43;11.00;41.60
80230;DHT22;69540;42.136;24.742;2024-02-15T04:27:09;11.00;41.40
80230;DHT22;69540;42.136;24.742;2024-02-15T04:29:39;11.00;41.50
80230;DHT22;69540;42.136;24.742;2024-02-15T04:32:10;11.00;41.40
80230;DHT22;69540;42.136;24.742;2024-02-15T04:34:42;10.90;41.40
80230;DHT22;69540;42.136;24.742;2024-02-15T04:37:08;11.00;41.50
80230;DHT22;69540;42.136;24.742;2024-02-15T04:39:37;11.00;41.40
80230;DHT22;69540;42.136;24.742;2024-02-15T04:42:05;10.90;41.40
80230;DHT22;69540;42.136;24.742;2024-02-15T04:44:35;10.90;41.60
80230;DHT22;69540;42.136;24.742;2024-02-15T04:47:02;10.80;41.70
80230;DHT22;69540;42.136;24.742;2024-02-15T04:49:30;10.90;41.80
80230;DHT22;69540;42.136;24.742;2024-02-15T04:51:56;10.80;41.50
80230;DHT22;69540;42.136;24.742;2024-02-15T04:54:27;10.80;41.60
80230;DHT22;69540;42.136;24.742;2024-02-15T04:56:53;10.90;41.60
80230;DHT22;69540;42.136;24.742;2024-02-15T04:59:20;10.90;41.60
80230;DHT22;69540;42.136;24.742;2024-02-15T05:01:47;10.90;41.40
80230;DHT22;69540;42.136;24.742;2024-02-15T05:04:15;10.80;41.60
80230;DHT22;69540;42.136;24.742;2024-02-15T05:06:40;10.90;41.70
80230;DHT22;69540;42.136;24.742;2024-02-15T05:09:06;10.80;42.10
80230;DHT22;69540;42.136;24.742;2024-02-15T05:11:43;10.90;41.80
80230;DHT22;69540;42.136;24.742;2024-02-15T05:14:14;10.90;41.80
80230;DHT22;69540;42.136;24.742;2024-02-15T05:16:45;10.70;41.90
80230;DHT22;69540;42.136;24.742;2024-02-15T05:19:16;10.80;41.90
80230;DHT22;69540;42.136;24.742;2024-02-15T05:21:42;10.90;41.90
80230;DHT22;69540;42.136;24.742;2024-02-15T05:24:13;10.90;41.80
80230;DHT22;69540;42.136;24.742;2024-02-15T05:26:40;11.00;41.70
80230;DHT22;69540;42.136;24.742;2024-02-15T05:29:06;11.00;41.50
80230;DHT22;69540;42.136;24.742;2024-02-15T05:31:32;11.10;41.40
80230;DHT22;69540;42.136;24.742;2024-02-15T05:34:00;11.10;41.50
80230;DHT22;69540;42.136;24.742;2024-02-15T05:36:25;11.10;41.20
80230;DHT22;69540;42.136;24.742;2024-02-15T05:38:53;11.20;41.30
80230;DHT22;69540;42.136;24.742;2024-02-15T05:41:20;11.20;41.20
80230;DHT22;69540;42.136;24.742;2024-02-15T05:43:46;11.10;41.10
80230;DHT22;69540;42.136;24.742;2024-02-15T05:46:14;11.20;41.30
80230;DHT22;69540;42.136;24.742;2024-02-15T05:48:40;11.20;41.20
80230;DHT22;69540;42.136;24.742;2024-02-15T05:51:07;11.20;41.30
80230;DHT22;69540;42.136;24.742;2024-02-15T05:53:34;11.20;41.50
80230;DHT22;69540;42.136;24.742;2024-02-15T05:56:05;11.30;41.20
80230;DHT22;69540;42.136;24.742;2024-02-15T05:58:32;11.20;41.20
80230;DHT22;69540;42.136;24.742;2024-02-15T06:01:03;11.30;41.20
80230;DHT22;69540;42.136;24.742;2024-02-15T06:03:34;11.20;41.10
80230;DHT22;69540;42.136;24.742;2024-02-15T06:06:04;11.30;41.10
80230;DHT22;69540;42.136;24.742;2024-02-15T06:08:35;11.30;41.10
80230;DHT22;69540;42.136;24.742;2024-02-15T06:11:02;11.20;41.30
80230;DHT22;69540;42.136;24.742;2024-02-15T06:13:28;11.10;41.50
80230;DHT22;69540;42.136;24.742;2024-02-15T06:15:54;11.00;42.90
80230;DHT22;69540;42.136;24.742;2024-02-15T06:18:20;11.10;43.50
80230;DHT22;69540;42.136;24.742;2024-02-15T06:21:00;11.20;42.10
80230;DHT22;69540;42.136;24.742;2024-02-15T06:23:26;11.30;41.90
80230;DHT22;69540;42.136;24.742;2024-02-15T06:25:54;11.20;41.80
80230;DHT22;69540;42.136;24.742;2024-02-15T06:28:20;11.20;41.60
80230;DHT22;69540;42.136;24.742;2024-02-15T06:31:06;11.20;41.60
80230;DHT22;69540;42.136;24.742;2024-02-15T06:33:50;11.30;41.20
80230;DHT22;69540;42.136;24.742;2024-02-15T06:36:49;11.40;41.10
80230;DHT22;69540;42.136;24.742;2024-02-15T06:39:33;11.40;41.00
80230;DHT22;69540;42.136;24.742;2024-02-15T06:44:46;11.40;41.10
80230;DHT22;69540;42.136;24.742;2024-02-15T06:47:13;11.40;41.20
80230;DHT22;69540;42.136;24.742;2024-02-15T06:49:39;11.40;41.50
80230;DHT22;69540;42.136;24.742;2024-02-15T06:52:08;11.40;41.20
80230;DHT22;69540;42.136;24.742;2024-02-15T06:54:40;11.50;41.20
80230;DHT22;69540;42.136;24.742;2024-02-15T06:57:07;11.60;41.10
80230;DHT22;69540;42.136;24.742;2024-02-15T06:59:33;11.70;40.80
80230;DHT22;69540;42.136;24.742;2024-02-15T07:02:00;11.80;40.70
80230;DHT22;69540;42.136;24.742;2024-02-15T07:04:26;11.70;40.70
80230;DHT22;69540;42.136;24.742;2024-02-15T07:06:52;11.80;40.50
80230;DHT22;69540;42.136;24.742;2024-02-15T07:09:23;11.80;40.50
80230;DHT22;69540;42.136;24.742;2024-02-15T07:11:50;11.80;40.50
80230;DHT22;69540;42.136;24.742;2024-02-15T07:14:16;11.80;40.70
80230;DHT22;69540;42.136;24.742;2024-02-15T07:16:49;11.90;40.80
80230;DHT22;69540;42.136;24.742;2024-02-15T07:19:15;12.00;40.40
80230;DHT22;69540;42.136;24.742;2024-02-15T07:21:42;11.90;40.30
80230;DHT22;69540;42.136;24.742;2024-02-15T07:24:08;12.10;40.30
80230;DHT22;69540;42.136;24.742;2024-02-15T07:26:35;12.20;46.90
80230;DHT22;69540;42.136;24.742;2024-02-15T07:29:02;12.20;46.00
80230;DHT22;69540;42.136;24.742;2024-02-15T07:31:31;12.40;43.80
80230;DHT22;69540;42.136;24.742;2024-02-15T07:33:57;12.60;44.40
80230;DHT22;69540;42.136;24.742;2024-02-15T07:36:23;12.60;39.70
80230;DHT22;69540;42.136;24.742;2024-02-15T07:38:50;12.70;38.90
80230;DHT22;69540;42.136;24.742;2024-02-15T07:41:22;12.80;38.50
80230;DHT22;69540;42.136;24.742;2024-02-15T07:43:51;12.90;38.50
80230;DHT22;69540;42.136;24.742;2024-02-15T07:46:21;13.00;38.20
80230;DHT22;69540;42.136;24.742;2024-02-15T07:48:47;13.20;37.70
80230;DHT22;69540;42.136;24.742;2024-02-15T07:51:14;13.80;37.20
80230;DHT22;69540;42.136;24.742;2024-02-15T07:53:49;15.60;34.60
80230;DHT22;69540;42.136;24.742;2024-02-15T07:56:16;18.30;30.00
80230;DHT22;69540;42.136;24.742;2024-02-15T07:58:48;20.70;26.70
80230;DHT22;69540;42.136;24.742;2024-02-15T08:01:17;22.70;24.20
80230;DHT22;69540;42.136;24.742;2024-02-15T08:03:44;24.80;21.80
80230;DHT22;69540;42.136;24.742;2024-02-15T08:06:15;26.20;20.40
80230;DHT22;69540;42.136;24.742;2024-02-15T08:08:43;27.60;19.40
80230;DHT22;69540;42.136;24.742;2024-02-15T08:11:11;28.70;17.80
80230;DHT22;69540;42.136;24.742;2024-02-15T08:13:50;29.60;17.20
80230;DHT22;69540;42.136;24.742;2024-02-15T08:16:20;30.00;16.60
80230;DHT22;69540;42.136;24.742;2024-02-15T08:18:48;30.70;15.70
80230;DHT22;69540;42.136;24.742;2024-02-15T08:21:17;31.40;15.20
80230;DHT22;69540;42.136;24.742;2024-02-15T08:23:43;32.20;15.00
80230;DHT22;69540;42.136;24.742;2024-02-15T08:26:10;32.70;14.50
80230;DHT22;69540;42.136;24.742;2024-02-15T08:28:39;33.30;13.90
80230;DHT22;69540;42.136;24.742;2024-02-15T08:31:05;33.60;13.60
80230;DHT22;69540;42.136;24.742;2024-02-15T08:33:32;34.00;13.20
80230;DHT22;69540;42.136;24.742;2024-02-15T08:35:57;33.80;13.30
80230;DHT22;69540;42.136;24.742;2024-02-15T08:38:23;34.10;13.00
80230;DHT22;69540;42.136;24.742;2024-02-15T08:40:49;34.10;13.10
80230;DHT22;69540;42.136;24.742;2024-02-15T08:43:15;34.10;12.90
80230;DHT22;69540;42.136;24.742;2024-02-15T08:45:41;33.80;13.00
80230;DHT22;69540;42.136;24.742;2024-02-15T08:48:07;33.20;14.00
80230;DHT22;69540;42.136;24.742;2024-02-15T08:50:33;32.60;13.50
80230;DHT22;69540;42.136;24.742;2024-02-15T08:52:59;32.10;13.60
80230;DHT22;69540;42.136;24.742;2024-02-15T08:55:25;30.80;14.10
80230;DHT22;69540;42.136;24.742;2024-02-15T08:57:53;29.20;17.00
80230;DHT22;69540;42.136;24.742;2024-02-15T09:00:20;27.90;19.00
80230;DHT22;69540;42.136;24.742;2024-02-15T09:02:46;26.80;20.00
80230;DHT22;69540;42.136;24.742;2024-02-15T09:05:13;26.10;20.10
80230;DHT22;69540;42.136;24.742;2024-02-15T09:07:44;25.10;19.50
80230;DHT22;69540;42.136;24.742;2024-02-15T09:10:13;24.20;22.00
80230;DHT22;69540;42.136;24.742;2024-02-15T09:12:41;23.90;21.50
80230;DHT22;69540;42.136;24.742;2024-02-15T09:15:08;23.70;22.60
80230;DHT22;69540;42.136;24.742;2024-02-15T09:17:35;23.50;22.90
80230;DHT22;69540;42.136;24.742;2024-02-15T09:20:08;23.30;21.20
80230;DHT22;69540;42.136;24.742;2024-02-15T09:22:34;23.10;21.00
80230;DHT22;69540;42.136;24.742;2024-02-15T09:25:02;22.70;21.30
80230;DHT22;69540;42.136;24.742;2024-02-15T09:27:28;22.50;21.70
80230;DHT22;69540;42.136;24.742;2024-02-15T09:29:54;22.20;21.60
80230;DHT22;69540;42.136;24.742;2024-02-15T09:32:21;21.90;21.80
80230;DHT22;69540;42.136;24.742;2024-02-15T09:34:48;21.50;22.20
80230;DHT22;69540;42.136;24.742;2024-02-15T09:37:15;21.20;22.60
80230;DHT22;69540;42.136;24.742;2024-02-15T09:39:41;21.00;22.90
80230;DHT22;69540;42.136;24.742;2024-02-15T09:42:06;20.80;23.20
80230;DHT22;69540;42.136;24.742;2024-02-15T09:44:32;20.60;23.30
80230;DHT22;69540;42.136;24.742;2024-02-15T09:47:05;20.30;23.80
80230;DHT22;69540;42.136;24.742;2024-02-15T09:49:38;20.10;23.80
80230;DHT22;69540;42.136;24.742;2024-02-15T09:52:08;19.80;24.40
80230;DHT22;69540;42.136;24.742;2024-02-15T09:54:40;19.80;24.60
80230;DHT22;69540;42.136;24.742;2024-02-15T09:57:09;19.60;24.80
80230;DHT22;69540;42.136;24.742;2024-02-15T09:59:38;19.40;24.80
80230;DHT22;69540;42.136;24.742;2024-02-15T10:02:05;19.30;25.30
80230;DHT22;69540;42.136;24.742;2024-02-15T10:04:45;19.10;25.30
80230;DHT22;69540;42.136;24.742;2024-02-15T10:07:11;18.80;25.80
80230;DHT22;69540;42.136;24.742;2024-02-15T10:09:39;18.80;26.10
80230;DHT22;69540;42.136;24.742;2024-02-15T10:12:08;18.80;26.10
80230;DHT22;69540;42.136;24.742;2024-02-15T10:14:35;18.70;26.50
80230;DHT22;69540;42.136;24.742;2024-02-15T10:17:08;18.50;26.30
80230;DHT22;69540;42.136;24.742;2024-02-15T10:19:40;18.40;26.40
80230;DHT22;69540;42.136;24.742;2024-02-15T10:22:09;18.30;26.60
80230;DHT22;69540;42.136;24.742;2024-02-15T10:24:35;18.30;26.80
80230;DHT22;69540;42.136;24.742;2024-02-15T10:27:03;18.20;26.90
80230;DHT22;69540;42.136;24.742;2024-02-15T10:29:30;18.20;27.10
80230;DHT22;69540;42.136;24.742;2024-02-15T10:32:00;18.10;27.20
80230;DHT22;69540;42.136;24.742;2024-02-15T10:34:27;17.70;27.20
80230;DHT22;69540;42.136;24.742;2024-02-15T10:37:11;17.50;27.70
80230;DHT22;69540;42.136;24.742;2024-02-15T10:39:37;17.20;28.00
80230;DHT22;69540;42.136;24.742;2024-02-15T10:42:04;17.30;28.20
80230;DHT22;69540;42.136;24.742;2024-02-15T10:44:32;17.40;28.20
80230;DHT22;69540;42.136;24.742;2024-02-15T10:46:59;17.30;28.10
80230;DHT22;69540;42.136;24.742;2024-02-15T10:49:26;17.40;28.40
80230;DHT22;69540;42.136;24.742;2024-02-15T10:52:00;17.30;27.90
80230;DHT22;69540;42.136;24.742;2024-02-15T10:54:52;17.20;28.10
80230;DHT22;69540;42.136;24.742;2024-02-15T10:57:21;17.20;28.30
80230;DHT22;69540;42.136;24.742;2024-02-15T10:59:57;17.00;28.40
80230;DHT22;69540;42.136;24.742;2024-02-15T11:02:30;17.00;28.60
80230;DHT22;69540;42.136;24.742;2024-02-15T11:05:02;17.10;28.60
80230;DHT22;69540;42.136;24.742;2024-02-15T11:07:31;17.10;28.50
80230;DHT22;69540;42.136;24.742;2024-02-15T11:09:57;17.10;28.40
80230;DHT22;69540;42.136;24.742;2024-02-15T11:12:27;17.00;28.50
80230;DHT22;69540;42.136;24.742;2024-02-15T11:14:54;17.10;28.80
80230;DHT22;69540;42.136;24.742;2024-02-15T11:20:14;17.20;28.10
80230;DHT22;69540;42.136;24.742;2024-02-15T11:23:05;17.20;28.20
80230;DHT22;69540;42.136;24.742;2024-02-15T11:25:35;16.90;28.60
80230;DHT22;69540;42.136;24.742;2024-02-15T11:30:50;16.90;29.50
80230;DHT22;69540;42.136;24.742;2024-02-15T11:36:07;17.20;28.80
80230;DHT22;69540;42.136;24.742;2024-02-15T11:38:34;17.30;28.70
80230;DHT22;69540;42.136;24.742;2024-02-15T11:41:03;17.20;28.20
80230;DHT22;69540;42.136;24.742;2024-02-15T11:46:18;17.40;28.10
80230;DHT22;69540;42.136;24.742;2024-02-15T11:48:48;17.50;28.00
80230;DHT22;69540;42.136;24.742;2024-02-15T11:51:35;17.30;28.40
80230;DHT22;69540;42.136;24.742;2024-02-15T11:54:12;17.40;28.70
80230;DHT22;69540;42.136;24.742;2024-02-15T11:59:13;17.60;28.10
80230;DHT22;69540;42.136;24.742;2024-02-15T12:01:57;17.60;28.00
80230;DHT22;69540;42.136;24.742;2024-02-15T12:04:42;17.60;27.90
80230;DHT22;69540;42.136;24.742;2024-02-15T12:07:26;17.80;28.10
80230;DHT22;69540;42.136;24.742;2024-02-15T12:10:17;17.80;27.90
80230;DHT22;69540;42.136;24.742;2024-02-15T12:13:02;17.90;27.80
80230;DHT22;69540;42.136;24.742;2024-02-15T12:16:00;18.00;27.30
80230;DHT22;69540;42.136;24.742;2024-02-15T12:18:45;17.90;27.70
80230;DHT22;69540;42.136;24.742;2024-02-15T12:21:21;18.00;28.70
80230;DHT22;69540;42.136;24.742;2024-02-15T12:23:49;18.00;27.60
80230;DHT22;69540;42.136;24.742;2024-02-15T12:26:21;18.00;27.40
80230;DHT22;69540;42.136;24.742;2024-02-15T12:28:52;18.10;27.50
80230;DHT22;69540;42.136;24.742;2024-02-15T12:31:22;18.00;27.10
80230;DHT22;69540;42.136;24.742;2024-02-15T12:34:04;17.90;29.10
80230;DHT22;69540;42.136;24.742;2024-02-15T12:36:34;17.90;28.40
80230;DHT22;69540;42.136;24.742;2024-02-15T12:39:06;17.90;28.00
80230;DHT22;69540;42.136;24.742;2024-02-15T12:41:48;18.00;27.70
80230;DHT22;69540;42.136;24.742;2024-02-15T12:44:18;18.10;27.50
80230;DHT22;69540;42.136;24.742;2024-02-15T12:46:54;18.10;27.60
80230;DHT22;69540;42.136;24.742;2024-02-15T12:51:53;18.10;27.10
80230;DHT22;69540;42.136;24.742;2024-02-15T12:54:21;18.20;27.00
80230;DHT22;69540;42.136;24.742;2024-02-15T12:56:47;18.30;26.90
80230;DHT22;69540;42.136;24.742;2024-02-15T12:59:19;18.30;27.10
80230;DHT22;69540;42.136;24.742;2024-02-15T13:01:45;18.20;27.10
80230;DHT22;69540;42.136;24.742;2024-02-15T13:04:26;18.20;27.00
80230;DHT22;69540;42.136;24.742;2024-02-15T13:06:52;18.20;27.30
80230;DHT22;69540;42.136;24.742;2024-02-15T13:09:17;18.20;27.20
80230;DHT22;69540;42.136;24.742;2024-02-15T13:11:44;18.30;27.10
80230;DHT22;69540;42.136;24.742;2024-02-15T13:14:11;18.30;26.80
80230;DHT22;69540;42.136;24.742;2024-02-15T13:16:37;18.20;26.90
80230;DHT22;69540;42.136;24.742;2024-02-15T13:19:03;18.10;27.00
80230;DHT22;69540;42.136;24.742;2024-02-15T13:21:32;18.10;27.00
80230;DHT22;69540;42.136;24.742;2024-02-15T13:24:00;18.10;28.00
80230;DHT22;69540;42.136;24.742;2024-02-15T13:26:30;18.20;27.00
80230;DHT22;69540;42.136;24.742;2024-02-15T13:28:56;18.20;26.80
80230;DHT22;69540;42.136;24.742;2024-02-15T13:31:21;18.20;26.70
80230;DHT22;69540;42.136;24.742;2024-02-15T13:33:48;18.00;26.70
80230;DHT22;69540;42.136;24.742;2024-02-15T13:36:14;17.70;27.20
80230;DHT22;69540;42.136;24.742;2024-02-15T13:38:41;17.70;27.40
80230;DHT22;69540;42.136;24.742;2024-02-15T13:41:08;17.70;27.40
80230;DHT22;69540;42.136;24.742;2024-02-15T13:43:34;17.90;27.30
80230;DHT22;69540;42.136;24.742;2024-02-15T13:46:00;18.00;27.30
80230;DHT22;69540;42.136;24.742;2024-02-15T13:48:29;17.80;27.20
80230;DHT22;69540;42.136;24.742;2024-02-15T13:50:55;17.70;27.40
80230;DHT22;69540;42.136;24.742;2024-02-15T13:53:21;17.80;27.30
80230;DHT22;69540;42.136;24.742;2024-02-15T13:55:47;17.90;27.10
80230;DHT22;69540;42.136;24.742;2024-02-15T13:58:13;18.00;27.00
80230;DHT22;69540;42.136;24.742;2024-02-15T14:00:40;17.90;27.00
80230;DHT22;69540;42.136;24.742;2024-02-15T14:03:08;18.00;26.90
80230;DHT22;69540;42.136;24.742;2024-02-15T14:05:35;18.00;26.80
80230;DHT22;69540;42.136;24.742;2024-02-15T14:08:03;18.00;26.90
80230;DHT22;69540;42.136;24.742;2024-02-15T14:10:32;18.00;26.80
80230;DHT22;69540;42.136;24.742;2024-02-15T14:13:00;17.90;27.20
80230;DHT22;69540;42.136;24.742;2024-02-15T14:15:29;17.90;27.20
80230;DHT22;69540;42.136;24.742;2024-02-15T14:17:55;18.00;27.10
80230;DHT22;69540;42.136;24.742;2024-02-15T14:20:21;18.00;27.00
80230;DHT22;69540;42.136;24.742;2024-02-15T14:22:49;18.10;27.00
80230;DHT22;69540;42.136;24.742;2024-02-15T14:25:18;18.30;26.80
80230;DHT22;69540;42.136;24.742;2024-02-15T14:27:45;18.70;26.00
80230;DHT22;69540;42.136;24.742;2024-02-15T14:30:13;18.70;26.00
80230;DHT22;69540;42.136;24.742;2024-02-15T14:32:57;18.70;26.00
80230;DHT22;69540;42.136;24.742;2024-02-15T14:35:37;18.60;25.90
80230;DHT22;69540;42.136;24.742;2024-02-15T14:38:08;18.50;26.10
80230;DHT22;69540;42.136;24.742;2024-02-15T14:40:40;18.30;26.30
80230;DHT22;69540;42.136;24.742;2024-02-15T14:43:09;18.10;26.60
80230;DHT22;69540;42.136;24.742;2024-02-15T14:45:46;18.00;26.90
80230;DHT22;69540;42.136;24.742;2024-02-15T14:48:13;17.90;27.10
80230;DHT22;69540;42.136;24.742;2024-02-15T14:50:39;17.80;27.50
80230;DHT22;69540;42.136;24.742;2024-02-15T14:53:05;17.80;27.60
80230;DHT22;69540;42.136;24.742;2024-02-15T14:55:34;17.70;27.90
80230;DHT22;69540;42.136;24.742;2024-02-15T14:57:59;17.70;28.30
80230;DHT22;69540;42.136;24.742;2024-02-15T15:00:25;17.70;28.30
80230;DHT22;69540;42.136;24.742;2024-02-15T15:02:52;17.70;28.40
80230;DHT22;69540;42.136;24.742;2024-02-15T15:05:18;17.60;28.60
80230;DHT22;69540;42.136;24.742;2024-02-15T15:08:03;17.70;28.80
80230;DHT22;69540;42.136;24.742;2024-02-15T15:10:48;17.60;28.70
80230;DHT22;69540;42.136;24.742;2024-02-15T15:13:32;17.60;28.50
80230;DHT22;69540;42.136;24.742;2024-02-15T15:15:59;17.50;28.60
80230;DHT22;69540;42.136;24.742;2024-02-15T15:18:25;17.30;28.70
80230;DHT22;69540;42.136;24.742;2024-02-15T15:20:50;17.40;29.00
80230;DHT22;69540;42.136;24.742;2024-02-15T15:23:16;17.40;28.90
80230;DHT22;69540;42.136;24.742;2024-02-15T15:25:42;17.40;28.70
80230;DHT22;69540;42.136;24.742;2024-02-15T15:28:08;17.30;28.80
80230;DHT22;69540;42.136;24.742;2024-02-15T15:30:34;17.20;28.80
80230;DHT22;69540;42.136;24.742;2024-02-15T15:33:03;17.20;28.70
80230;DHT22;69540;42.136;24.742;2024-02-15T15:35:29;17.20;28.70
80230;DHT22;69540;42.136;24.742;2024-02-15T15:37:57;17.10;28.90
80230;DHT22;69540;42.136;24.742;2024-02-15T15:40:23;17.00;29.00
80230;DHT22;69540;42.136;24.742;2024-02-15T15:42:49;17.00;29.30